sensor_id;sensor_type;location;lat;lon;timestamp;P1;durP1;ratioP1;P2;durP2;ratioP2
11837;SDS011;5978;51.020;6.764;2022-09-09T00:02:19;2.93;;;1.53;;
11837;SDS011;5978;51.020;6.764;2022-09-09T00:05:04;2.63;;;1.20;;
11837;SDS011;5978;51.020;6.764;2022-09-09T00:07:47;4.90;;;1.33;;
11837;SDS011;5978;51.020;6.764;2022-09-09T00:10:21;1.83;;;1.10;;
11837;SDS011;5978;51.020;6.764;2022-09-09T00:16:00;1.73;;;1.27;;
11837;SDS011;5978;51.020;6.764;2022-09-09T00:21:07;2.40;;;1.10;;
11837;SDS011;5978;51.020;6.764;2022-09-09T00:23:38;1.20;;;0.97;;
11837;SDS011;5978;51.020;6.764;2022-09-09T00:26:07;1.77;;;1.33;;
11837;SDS011;5978;51.020;6.764;2022-09-09T00:31:29;1.17;;;0.90;;
11837;SDS011;5978;51.020;6.764;2022-09-09T00:36:46;1.97;;;0.90;;
11837;SDS011;5978;51.020;6.764;2022-09-09T00:39:27;4.97;;;1.17;;
11837;SDS011;5978;51.020;6.764;2022-09-09T00:42:11;2.90;;;1.00;;
11837;SDS011;5978;51.020;6.764;2022-09-09T00:45:01;3.33;;;1.13;;
11837;SDS011;5978;51.020;6.764;2022-09-09T00:47:45;1.70;;;1.10;;
11837;SDS011;5978;51.020;6.764;2022-09-09T00:50:22;1.50;;;0.97;;
11837;SDS011;5978;51.020;6.764;2022-09-09T00:53:04;3.83;;;1.43;;
11837;SDS011;5978;51.020;6.764;2022-09-09T00:56:09;4.13;;;1.50;;
11837;SDS011;5978;51.020;6.764;2022-09-09T00:58:40;2.50;;;1.40;;
11837;SDS011;5978;51.020;6.764;2022-09-09T01:01:15;2.63;;;1.20;;
11837;SDS011;5978;51.020;6.764;2022-09-09T01:03:43;2.70;;;1.60;;
11837;SDS011;5978;51.020;6.764;2022-09-09T01:06:27;1.93;;;1.50;;
11837;SDS011;5978;51.020;6.764;2022-09-09T01:17:15;2.43;;;1.50;;
11837;SDS011;5978;51.020;6.764;2022-09-09T01:28:48;2.90;;;1.13;;
11837;SDS011;5978;51.020;6.764;2022-09-09T01:31:31;3.23;;;1.30;;
11837;SDS011;5978;51.020;6.764;2022-09-09T01:34:01;2.60;;;1.40;;
11837;SDS011;5978;51.020;6.764;2022-09-09T01:36:32;3.53;;;1.30;;
11837;SDS011;5978;51.020;6.764;2022-09-09T01:39:05;3.93;;;1.67;;
11837;SDS011;5978;51.020;6.764;2022-09-09T01:41:31;2.33;;;1.53;;
11837;SDS011;5978;51.020;6.764;2022-09-09T01:43:57;2.03;;;1.60;;
11837;SDS011;5978;51.020;6.764;2022-09-09T01:46:23;4.27;;;1.53;;
11837;SDS011;5978;51.020;6.764;2022-09-09T01:48:51;3.10;;;1.80;;
11837;SDS011;5978;51.020;6.764;2022-09-09T01:51:18;4.13;;;1.80;;
11837;SDS011;5978;51.020;6.764;2022-09-09T01:53:44;3.80;;;1.47;;
11837;SDS011;5978;51.020;6.764;2022-09-09T01:58:59;3.10;;;1.43;;
11837;SDS011;5978;51.020;6.764;2022-09-09T02:04:17;6.50;;;2.57;;
11837;SDS011;5978;51.020;6.764;2022-09-09T02:06:49;2.07;;;1.43;;
11837;SDS011;5978;51.020;6.764;2022-09-09T02:09:18;3.00;;;1.53;;
11837;SDS011;5978;51.020;6.764;2022-09-09T02:11:48;3.50;;;1.40;;
11837;SDS011;5978;51.020;6.764;2022-09-09T02:14:21;4.10;;;1.67;;
11837;SDS011;5978;51.020;6.764;2022-09-09T02:16:54;1.97;;;1.30;;
11837;SDS011;5978;51.020;6.764;2022-09-09T02:19:39;3.07;;;1.23;;
11837;SDS011;5978;51.020;6.764;2022-09-09T02:22:13;6.10;;;1.73;;
11837;SDS011;5978;51.020;6.764;2022-09-09T02:24:42;1.50;;;1.30;;
11837;SDS011;5978;51.020;6.764;2022-09-09T02:27:11;2.80;;;1.83;;
11837;SDS011;5978;51.020;6.764;2022-09-09T02:29:39;1.83;;;1.50;;
11837;SDS011;5978;51.020;6.764;2022-09-09T02:32:20;4.43;;;2.37;;
11837;SDS011;5978;51.020;6.764;2022-09-09T02:34:58;6.53;;;1.77;;
11837;SDS011;5978;51.020;6.764;2022-09-09T02:37:29;1.87;;;1.30;;
11837;SDS011;5978;51.020;6.764;2022-09-09T02:40:04;2.33;;;2.03;;
11837;SDS011;5978;51.020;6.764;2022-09-09T02:42:31;2.07;;;1.23;;
11837;SDS011;5978;51.020;6.764;2022-09-09T02:44:57;3.97;;;1.70;;
11837;SDS011;5978;51.020;6.764;2022-09-09T02:52:51;5.50;;;1.90;;
11837;SDS011;5978;51.020;6.764;2022-09-09T02:58:19;3.33;;;1.30;;
11837;SDS011;5978;51.020;6.764;2022-09-09T03:00:46;3.20;;;2.23;;
11837;SDS011;5978;51.020;6.764;2022-09-09T03:03:14;4.23;;;1.30;;
11837;SDS011;5978;51.020;6.764;2022-09-09T03:05:41;2.60;;;1.57;;
11837;SDS011;5978;51.020;6.764;2022-09-09T03:08:07;1.73;;;1.50;;
11837;SDS011;5978;51.020;6.764;2022-09-09T03:10:33;4.00;;;1.73;;
11837;SDS011;5978;51.020;6.764;2022-09-09T03:12:59;1.90;;;1.70;;
11837;SDS011;5978;51.020;6.764;2022-09-09T03:15:25;6.30;;;1.90;;
11837;SDS011;5978;51.020;6.764;2022-09-09T03:17:56;7.43;;;1.73;;
11837;SDS011;5978;51.020;6.764;2022-09-09T03:20:23;5.63;;;2.57;;
11837;SDS011;5978;51.020;6.764;2022-09-09T03:22:50;4.53;;;1.57;;
11837;SDS011;5978;51.020;6.764;2022-09-09T03:25:17;2.70;;;1.70;;
11837;SDS011;5978;51.020;6.764;2022-09-09T03:27:43;3.80;;;1.33;;
11837;SDS011;5978;51.020;6.764;2022-09-09T03:30:08;3.67;;;1.60;;
11837;SDS011;5978;51.020;6.764;2022-09-09T03:32:34;4.50;;;1.20;;
11837;SDS011;5978;51.020;6.764;2022-09-09T03:35:00;9.03;;;1.70;;
11837;SDS011;5978;51.020;6.764;2022-09-09T03:37:25;3.47;;;1.43;;
11837;SDS011;5978;51.020;6.764;2022-09-09T03:39:51;3.17;;;1.63;;
11837;SDS011;5978;51.020;6.764;2022-09-09T03:42:19;5.13;;;2.47;;
11837;SDS011;5978;51.020;6.764;2022-09-09T03:44:48;7.47;;;1.83;;
11837;SDS011;5978;51.020;6.764;2022-09-09T03:47:18;4.57;;;2.30;;
11837;SDS011;5978;51.020;6.764;2022-09-09T03:49:46;4.83;;;2.23;;
11837;SDS011;5978;51.020;6.764;2022-09-09T03:52:13;2.77;;;1.77;;
11837;SDS011;5978;51.020;6.764;2022-09-09T03:54:39;3.57;;;2.20;;
11837;SDS011;5978;51.020;6.764;2022-09-09T03:57:07;4.93;;;2.10;;
11837;SDS011;5978;51.020;6.764;2022-09-09T03:59:34;2.50;;;2.10;;
11837;SDS011;5978;51.020;6.764;2022-09-09T04:02:00;6.30;;;2.20;;
11837;SDS011;5978;51.020;6.764;2022-09-09T04:04:27;2.27;;;1.80;;
11837;SDS011;5978;51.020;6.764;2022-09-09T04:06:53;3.37;;;1.80;;
11837;SDS011;5978;51.020;6.764;2022-09-09T04:09:18;4.43;;;1.77;;
11837;SDS011;5978;51.020;6.764;2022-09-09T04:11:44;5.43;;;2.37;;
11837;SDS011;5978;51.020;6.764;2022-09-09T04:14:11;6.40;;;2.33;;
11837;SDS011;5978;51.020;6.764;2022-09-09T04:16:37;3.20;;;1.80;;
11837;SDS011;5978;51.020;6.764;2022-09-09T04:19:03;2.30;;;2.10;;
11837;SDS011;5978;51.020;6.764;2022-09-09T04:21:30;3.33;;;1.87;;
11837;SDS011;5978;51.020;6.764;2022-09-09T04:23:56;7.10;;;2.13;;
11837;SDS011;5978;51.020;6.764;2022-09-09T04:26:21;3.50;;;2.20;;
11837;SDS011;5978;51.020;6.764;2022-09-09T04:28:47;7.10;;;2.47;;
11837;SDS011;5978;51.020;6.764;2022-09-09T04:31:17;6.13;;;1.83;;
11837;SDS011;5978;51.020;6.764;2022-09-09T04:33:46;4.63;;;1.77;;
11837;SDS011;5978;51.020;6.764;2022-09-09T04:36:12;1.90;;;1.70;;
11837;SDS011;5978;51.020;6.764;2022-09-09T04:38:38;5.47;;;2.70;;
11837;SDS011;5978;51.020;6.764;2022-09-09T04:41:03;4.17;;;2.30;;
11837;SDS011;5978;51.020;6.764;2022-09-09T04:43:30;2.87;;;2.27;;
11837;SDS011;5978;51.020;6.764;2022-09-09T04:45:55;6.03;;;2.30;;
11837;SDS011;5978;51.020;6.764;2022-09-09T04:48:21;4.23;;;2.20;;
11837;SDS011;5978;51.020;6.764;2022-09-09T04:53:45;4.50;;;2.30;;
11837;SDS011;5978;51.020;6.764;2022-09-09T04:56:14;3.63;;;1.80;;
11837;SDS011;5978;51.020;6.764;2022-09-09T04:58:41;3.77;;;2.00;;
11837;SDS011;5978;51.020;6.764;2022-09-09T05:01:14;4.23;;;1.93;;
11837;SDS011;5978;51.020;6.764;2022-09-09T05:03:42;5.20;;;2.53;;
11837;SDS011;5978;51.020;6.764;2022-09-09T05:06:11;6.87;;;2.40;;
11837;SDS011;5978;51.020;6.764;2022-09-09T05:08:38;7.17;;;2.00;;
11837;SDS011;5978;51.020;6.764;2022-09-09T05:11:21;6.30;;;2.40;;
11837;SDS011;5978;51.020;6.764;2022-09-09T05:13:49;7.63;;;2.20;;
11837;SDS011;5978;51.020;6.764;2022-09-09T05:16:15;7.10;;;2.33;;
11837;SDS011;5978;51.020;6.764;2022-09-09T05:18:42;3.80;;;2.30;;
11837;SDS011;5978;51.020;6.764;2022-09-09T05:21:08;5.70;;;2.03;;
11837;SDS011;5978;51.020;6.764;2022-09-09T05:23:34;5.47;;;2.20;;
11837;SDS011;5978;51.020;6.764;2022-09-09T05:26:01;4.70;;;2.40;;
11837;SDS011;5978;51.020;6.764;2022-09-09T05:28:27;5.20;;;1.87;;
11837;SDS011;5978;51.020;6.764;2022-09-09T05:31:04;4.20;;;2.10;;
11837;SDS011;5978;51.020;6.764;2022-09-09T05:33:33;6.67;;;2.33;;
11837;SDS011;5978;51.020;6.764;2022-09-09T05:36:03;2.90;;;1.90;;
11837;SDS011;5978;51.020;6.764;2022-09-09T05:38:31;5.73;;;2.30;;
11837;SDS011;5978;51.020;6.764;2022-09-09T05:41:00;3.70;;;1.90;;
11837;SDS011;5978;51.020;6.764;2022-09-09T05:43:27;2.80;;;1.80;;
11837;SDS011;5978;51.020;6.764;2022-09-09T05:46:10;7.83;;;2.40;;
11837;SDS011;5978;51.020;6.764;2022-09-09T05:48:38;6.97;;;2.50;;
11837;SDS011;5978;51.020;6.764;2022-09-09T05:51:07;7.30;;;2.00;;
11837;SDS011;5978;51.020;6.764;2022-09-09T05:53:35;3.87;;;2.07;;
11837;SDS011;5978;51.020;6.764;2022-09-09T05:56:02;6.50;;;1.80;;
11837;SDS011;5978;51.020;6.764;2022-09-09T05:58:30;2.97;;;1.90;;
11837;SDS011;5978;51.020;6.764;2022-09-09T06:01:00;8.47;;;1.90;;
11837;SDS011;5978;51.020;6.764;2022-09-09T06:03:34;4.53;;;1.73;;
11837;SDS011;5978;51.020;6.764;2022-09-09T06:06:01;8.00;;;2.70;;
11837;SDS011;5978;51.020;6.764;2022-09-09T06:08:32;2.70;;;1.90;;
11837;SDS011;5978;51.020;6.764;2022-09-09T06:11:05;2.77;;;1.37;;
11837;SDS011;5978;51.020;6.764;2022-09-09T06:13:33;3.83;;;1.37;;
11837;SDS011;5978;51.020;6.764;2022-09-09T06:16:00;4.90;;;1.73;;
11837;SDS011;5978;51.020;6.764;2022-09-09T06:18:26;5.30;;;1.40;;
11837;SDS011;5978;51.020;6.764;2022-09-09T06:21:02;3.30;;;1.60;;
11837;SDS011;5978;51.020;6.764;2022-09-09T06:23:29;3.60;;;1.27;;
11837;SDS011;5978;51.020;6.764;2022-09-09T06:26:06;7.70;;;1.73;;
11837;SDS011;5978;51.020;6.764;2022-09-09T06:28:35;6.80;;;1.80;;
11837;SDS011;5978;51.020;6.764;2022-09-09T06:31:02;2.43;;;1.70;;
11837;SDS011;5978;51.020;6.764;2022-09-09T06:33:33;1.80;;;1.20;;
11837;SDS011;5978;51.020;6.764;2022-09-09T06:36:01;1.73;;;1.30;;
11837;SDS011;5978;51.020;6.764;2022-09-09T06:38:28;2.00;;;1.30;;
11837;SDS011;5978;51.020;6.764;2022-09-09T06:40:54;2.50;;;1.50;;
11837;SDS011;5978;51.020;6.764;2022-09-09T06:43:21;3.97;;;1.60;;
11837;SDS011;5978;51.020;6.764;2022-09-09T06:45:54;4.50;;;1.57;;
11837;SDS011;5978;51.020;6.764;2022-09-09T06:48:21;5.30;;;2.00;;
11837;SDS011;5978;51.020;6.764;2022-09-09T06:50:47;3.17;;;1.57;;
11837;SDS011;5978;51.020;6.764;2022-09-09T06:53:16;3.87;;;1.47;;
11837;SDS011;5978;51.020;6.764;2022-09-09T06:55:44;4.40;;;1.73;;
11837;SDS011;5978;51.020;6.764;2022-09-09T06:58:10;4.37;;;1.50;;
11837;SDS011;5978;51.020;6.764;2022-09-09T07:00:36;3.27;;;1.50;;
11837;SDS011;5978;51.020;6.764;2022-09-09T07:03:04;2.13;;;1.40;;
11837;SDS011;5978;51.020;6.764;2022-09-09T07:05:31;5.57;;;1.40;;
11837;SDS011;5978;51.020;6.764;2022-09-09T07:07:56;5.60;;;1.40;;
11837;SDS011;5978;51.020;6.764;2022-09-09T07:10:23;2.63;;;1.60;;
11837;SDS011;5978;51.020;6.764;2022-09-09T07:12:52;4.40;;;1.57;;
11837;SDS011;5978;51.020;6.764;2022-09-09T07:15:18;3.43;;;1.83;;
11837;SDS011;5978;51.020;6.764;2022-09-09T07:17:44;2.00;;;1.30;;
11837;SDS011;5978;51.020;6.764;2022-09-09T07:20:10;5.93;;;1.40;;
11837;SDS011;5978;51.020;6.764;2022-09-09T07:22:36;1.30;;;1.07;;
11837;SDS011;5978;51.020;6.764;2022-09-09T07:25:02;5.57;;;1.50;;
11837;SDS011;5978;51.020;6.764;2022-09-09T07:27:28;2.10;;;1.27;;
11837;SDS011;5978;51.020;6.764;2022-09-09T07:29:55;4.30;;;1.90;;
11837;SDS011;5978;51.020;6.764;2022-09-09T07:32:20;7.13;;;1.63;;
11837;SDS011;5978;51.020;6.764;2022-09-09T07:34:46;3.83;;;1.57;;
11837;SDS011;5978;51.020;6.764;2022-09-09T07:37:12;3.20;;;1.70;;
11837;SDS011;5978;51.020;6.764;2022-09-09T07:39:38;3.97;;;1.83;;
11837;SDS011;5978;51.020;6.764;2022-09-09T07:42:04;3.90;;;1.57;;
11837;SDS011;5978;51.020;6.764;2022-09-09T07:44:30;3.30;;;1.30;;
11837;SDS011;5978;51.020;6.764;2022-09-09T07:46:59;4.17;;;1.30;;
11837;SDS011;5978;51.020;6.764;2022-09-09T07:49:25;4.83;;;1.70;;
11837;SDS011;5978;51.020;6.764;2022-09-09T07:51:51;3.60;;;1.43;;
11837;SDS011;5978;51.020;6.764;2022-09-09T07:54:18;9.33;;;1.43;;
11837;SDS011;5978;51.020;6.764;2022-09-09T07:56:45;4.50;;;1.73;;
11837;SDS011;5978;51.020;6.764;2022-09-09T07:59:11;3.50;;;1.43;;
11837;SDS011;5978;51.020;6.764;2022-09-09T08:01:42;5.70;;;2.00;;
11837;SDS011;5978;51.020;6.764;2022-09-09T08:04:11;2.40;;;1.47;;
11837;SDS011;5978;51.020;6.764;2022-09-09T08:06:44;4.17;;;1.33;;
11837;SDS011;5978;51.020;6.764;2022-09-09T08:09:12;3.73;;;1.83;;
11837;SDS011;5978;51.020;6.764;2022-09-09T08:11:38;6.77;;;1.60;;
11837;SDS011;5978;51.020;6.764;2022-09-09T08:14:05;4.37;;;1.20;;
11837;SDS011;5978;51.020;6.764;2022-09-09T08:16:36;10.90;;;1.50;;
11837;SDS011;5978;51.020;6.764;2022-09-09T08:19:04;3.90;;;1.57;;
11837;SDS011;5978;51.020;6.764;2022-09-09T08:21:32;4.20;;;2.07;;
11837;SDS011;5978;51.020;6.764;2022-09-09T08:23:59;4.77;;;1.60;;
11837;SDS011;5978;51.020;6.764;2022-09-09T08:28:55;10.03;;;1.93;;
11837;SDS011;5978;51.020;6.764;2022-09-09T08:33:56;9.10;;;2.03;;
11837;SDS011;5978;51.020;6.764;2022-09-09T08:36:24;12.40;;;2.60;;
11837;SDS011;5978;51.020;6.764;2022-09-09T08:38:52;4.23;;;2.20;;
11837;SDS011;5978;51.020;6.764;2022-09-09T08:58:28;5.80;;;1.47;;
11837;SDS011;5978;51.020;6.764;2022-09-09T09:01:02;1.93;;;1.00;;
11837;SDS011;5978;51.020;6.764;2022-09-09T09:06:06;5.23;;;1.53;;
11837;SDS011;5978;51.020;6.764;2022-09-09T09:08:47;2.00;;;1.10;;
11837;SDS011;5978;51.020;6.764;2022-09-09T09:11:16;3.10;;;1.10;;
11837;SDS011;5978;51.020;6.764;2022-09-09T09:13:51;6.97;;;1.60;;
11837;SDS011;5978;51.020;6.764;2022-09-09T09:16:30;3.20;;;0.97;;
11837;SDS011;5978;51.020;6.764;2022-09-09T09:19:03;5.50;;;2.57;;
11837;SDS011;5978;51.020;6.764;2022-09-09T09:23:59;1.40;;;1.20;;
11837;SDS011;5978;51.020;6.764;2022-09-09T09:26:29;3.70;;;1.17;;
11837;SDS011;5978;51.020;6.764;2022-09-09T09:28:58;3.80;;;1.90;;
11837;SDS011;5978;51.020;6.764;2022-09-09T09:31:25;2.30;;;1.27;;
11837;SDS011;5978;51.020;6.764;2022-09-09T09:33:52;5.83;;;1.60;;
11837;SDS011;5978;51.020;6.764;2022-09-09T09:36:20;6.50;;;1.90;;
11837;SDS011;5978;51.020;6.764;2022-09-09T09:38:52;2.10;;;1.30;;
11837;SDS011;5978;51.020;6.764;2022-09-09T09:41:34;2.10;;;1.20;;
11837;SDS011;5978;51.020;6.764;2022-09-09T09:44:02;2.00;;;1.10;;
11837;SDS011;5978;51.020;6.764;2022-09-09T09:46:29;2.33;;;1.37;;
11837;SDS011;5978;51.020;6.764;2022-09-09T09:49:02;1.40;;;1.07;;
11837;SDS011;5978;51.020;6.764;2022-09-09T09:51:30;3.57;;;1.50;;
11837;SDS011;5978;51.020;6.764;2022-09-09T09:54:03;2.47;;;1.37;;
11837;SDS011;5978;51.020;6.764;2022-09-09T09:56:40;4.57;;;1.40;;
11837;SDS011;5978;51.020;6.764;2022-09-09T09:59:19;4.33;;;1.97;;
11837;SDS011;5978;51.020;6.764;2022-09-09T10:02:06;4.13;;;1.37;;
11837;SDS011;5978;51.020;6.764;2022-09-09T10:04:42;2.90;;;1.20;;
11837;SDS011;5978;51.020;6.764;2022-09-09T10:07:11;2.87;;;1.20;;
11837;SDS011;5978;51.020;6.764;2022-09-09T10:09:38;2.40;;;1.73;;
11837;SDS011;5978;51.020;6.764;2022-09-09T10:17:25;6.77;;;1.37;;
11837;SDS011;5978;51.020;6.764;2022-09-09T10:23:05;1.73;;;1.27;;
11837;SDS011;5978;51.020;6.764;2022-09-09T10:25:52;2.30;;;1.33;;
11837;SDS011;5978;51.020;6.764;2022-09-09T10:40:43;3.83;;;1.20;;
11837;SDS011;5978;51.020;6.764;2022-09-09T10:43:21;1.10;;;0.80;;
11837;SDS011;5978;51.020;6.764;2022-09-09T10:45:55;2.20;;;1.00;;
11837;SDS011;5978;51.020;6.764;2022-09-09T10:48:37;2.23;;;1.10;;
11837;SDS011;5978;51.020;6.764;2022-09-09T10:56:28;2.20;;;1.07;;
11837;SDS011;5978;51.020;6.764;2022-09-09T10:59:06;2.03;;;0.83;;
11837;SDS011;5978;51.020;6.764;2022-09-09T11:01:45;3.63;;;0.97;;
11837;SDS011;5978;51.020;6.764;2022-09-09T11:06:44;1.20;;;1.00;;
11837;SDS011;5978;51.020;6.764;2022-09-09T11:09:18;1.80;;;1.00;;
11837;SDS011;5978;51.020;6.764;2022-09-09T11:11:50;1.13;;;1.00;;
11837;SDS011;5978;51.020;6.764;2022-09-09T11:14:28;1.40;;;0.90;;
11837;SDS011;5978;51.020;6.764;2022-09-09T11:17:28;2.07;;;0.93;;
11837;SDS011;5978;51.020;6.764;2022-09-09T11:20:14;3.20;;;1.20;;
11837;SDS011;5978;51.020;6.764;2022-09-09T11:22:44;2.83;;;1.27;;
11837;SDS011;5978;51.020;6.764;2022-09-09T11:39:02;5.30;;;1.70;;
11837;SDS011;5978;51.020;6.764;2022-09-09T11:41:45;2.73;;;1.10;;
11837;SDS011;5978;51.020;6.764;2022-09-09T11:44:12;1.20;;;1.10;;
11837;SDS011;5978;51.020;6.764;2022-09-09T11:46:41;2.30;;;1.10;;
11837;SDS011;5978;51.020;6.764;2022-09-09T11:49:26;2.10;;;1.00;;
11837;SDS011;5978;51.020;6.764;2022-09-09T11:52:11;2.43;;;1.70;;
11837;SDS011;5978;51.020;6.764;2022-09-09T11:54:52;4.57;;;1.30;;
11837;SDS011;5978;51.020;6.764;2022-09-09T11:59:57;1.50;;;1.30;;
11837;SDS011;5978;51.020;6.764;2022-09-09T12:02:24;3.53;;;1.00;;
11837;SDS011;5978;51.020;6.764;2022-09-09T12:05:08;3.67;;;1.20;;
11837;SDS011;5978;51.020;6.764;2022-09-09T12:10:23;6.90;;;1.53;;
11837;SDS011;5978;51.020;6.764;2022-09-09T12:12:52;5.10;;;1.93;;
11837;SDS011;5978;51.020;6.764;2022-09-09T12:15:19;2.80;;;1.87;;
11837;SDS011;5978;51.020;6.764;2022-09-09T12:17:48;4.17;;;1.47;;
11837;SDS011;5978;51.020;6.764;2022-09-09T12:20:31;2.07;;;1.17;;
11837;SDS011;5978;51.020;6.764;2022-09-09T12:26:25;3.20;;;1.10;;
11837;SDS011;5978;51.020;6.764;2022-09-09T12:31:31;3.47;;;1.37;;
11837;SDS011;5978;51.020;6.764;2022-09-09T12:34:08;3.47;;;1.00;;
11837;SDS011;5978;51.020;6.764;2022-09-09T12:36:43;1.90;;;1.30;;
11837;SDS011;5978;51.020;6.764;2022-09-09T12:39:16;9.07;;;1.37;;
11837;SDS011;5978;51.020;6.764;2022-09-09T12:41:54;10.23;;;2.23;;
11837;SDS011;5978;51.020;6.764;2022-09-09T12:44:22;2.13;;;1.23;;
11837;SDS011;5978;51.020;6.764;2022-09-09T12:46:52;10.67;;;2.50;;
11837;SDS011;5978;51.020;6.764;2022-09-09T12:52:07;8.40;;;2.30;;
11837;SDS011;5978;51.020;6.764;2022-09-09T12:54:45;1.60;;;1.30;;
11837;SDS011;5978;51.020;6.764;2022-09-09T12:57:12;2.60;;;1.30;;
11837;SDS011;5978;51.020;6.764;2022-09-09T12:59:40;4.63;;;1.10;;
11837;SDS011;5978;51.020;6.764;2022-09-09T13:02:22;2.80;;;1.10;;
11837;SDS011;5978;51.020;6.764;2022-09-09T13:04:52;1.30;;;0.83;;
11837;SDS011;5978;51.020;6.764;2022-09-09T13:07:19;4.13;;;1.07;;
11837;SDS011;5978;51.020;6.764;2022-09-09T13:09:48;2.07;;;1.00;;
11837;SDS011;5978;51.020;6.764;2022-09-09T13:12:16;10.50;;;1.10;;
11837;SDS011;5978;51.020;6.764;2022-09-09T13:14:48;2.13;;;1.30;;
11837;SDS011;5978;51.020;6.764;2022-09-09T13:17:19;2.27;;;1.10;;
11837;SDS011;5978;51.020;6.764;2022-09-09T13:19:47;6.03;;;1.30;;
11837;SDS011;5978;51.020;6.764;2022-09-09T13:22:20;8.67;;;1.50;;
11837;SDS011;5978;51.020;6.764;2022-09-09T13:24:58;3.93;;;1.33;;
11837;SDS011;5978;51.020;6.764;2022-09-09T13:27:32;2.10;;;1.23;;
11837;SDS011;5978;51.020;6.764;2022-09-09T13:29:59;1.87;;;1.03;;
11837;SDS011;5978;51.020;6.764;2022-09-09T13:32:26;1.37;;;0.80;;
11837;SDS011;5978;51.020;6.764;2022-09-09T13:35:00;3.67;;;1.47;;
11837;SDS011;5978;51.020;6.764;2022-09-09T13:37:36;2.90;;;1.20;;
11837;SDS011;5978;51.020;6.764;2022-09-09T13:40:04;6.30;;;1.50;;
11837;SDS011;5978;51.020;6.764;2022-09-09T13:42:31;3.00;;;0.90;;
11837;SDS011;5978;51.020;6.764;2022-09-09T13:45:00;1.67;;;0.80;;
11837;SDS011;5978;51.020;6.764;2022-09-09T13:47:33;2.40;;;0.90;;
11837;SDS011;5978;51.020;6.764;2022-09-09T13:52:45;2.13;;;1.17;;
11837;SDS011;5978;51.020;6.764;2022-09-09T13:55:12;3.67;;;1.40;;
11837;SDS011;5978;51.020;6.764;2022-09-09T13:57:38;4.30;;;1.70;;
11837;SDS011;5978;51.020;6.764;2022-09-09T14:00:03;8.33;;;1.67;;
11837;SDS011;5978;51.020;6.764;2022-09-09T14:02:32;2.23;;;0.80;;
11837;SDS011;5978;51.020;6.764;2022-09-09T14:04:58;1.90;;;0.90;;
11837;SDS011;5978;51.020;6.764;2022-09-09T14:07:24;3.73;;;1.00;;
11837;SDS011;5978;51.020;6.764;2022-09-09T14:09:50;2.10;;;1.00;;
11837;SDS011;5978;51.020;6.764;2022-09-09T14:12:16;3.03;;;1.13;;
11837;SDS011;5978;51.020;6.764;2022-09-09T14:14:43;1.87;;;1.00;;
11837;SDS011;5978;51.020;6.764;2022-09-09T14:17:09;2.07;;;1.07;;
11837;SDS011;5978;51.020;6.764;2022-09-09T14:19:34;1.20;;;0.90;;
11837;SDS011;5978;51.020;6.764;2022-09-09T14:22:00;1.63;;;0.97;;
11837;SDS011;5978;51.020;6.764;2022-09-09T14:24:26;2.90;;;1.10;;
11837;SDS011;5978;51.020;6.764;2022-09-09T14:26:52;5.60;;;0.90;;
11837;SDS011;5978;51.020;6.764;2022-09-09T14:29:19;2.80;;;1.00;;
11837;SDS011;5978;51.020;6.764;2022-09-09T14:31:44;2.30;;;0.90;;
11837;SDS011;5978;51.020;6.764;2022-09-09T14:34:10;2.90;;;1.03;;
11837;SDS011;5978;51.020;6.764;2022-09-09T14:36:36;2.50;;;1.00;;
11837;SDS011;5978;51.020;6.764;2022-09-09T14:39:03;2.87;;;1.00;;
11837;SDS011;5978;51.020;6.764;2022-09-09T14:41:29;1.80;;;1.13;;
11837;SDS011;5978;51.020;6.764;2022-09-09T14:43:55;2.60;;;0.90;;
11837;SDS011;5978;51.020;6.764;2022-09-09T14:46:21;2.17;;;1.03;;
11837;SDS011;5978;51.020;6.764;2022-09-09T14:48:47;3.33;;;0.90;;
11837;SDS011;5978;51.020;6.764;2022-09-09T14:51:16;1.43;;;1.33;;
11837;SDS011;5978;51.020;6.764;2022-09-09T14:53:44;1.70;;;1.10;;
11837;SDS011;5978;51.020;6.764;2022-09-09T14:56:14;2.57;;;1.67;;
11837;SDS011;5978;51.020;6.764;2022-09-09T14:58:42;1.93;;;1.20;;
11837;SDS011;5978;51.020;6.764;2022-09-09T15:01:09;3.20;;;1.20;;
11837;SDS011;5978;51.020;6.764;2022-09-09T15:03:42;2.33;;;1.60;;
11837;SDS011;5978;51.020;6.764;2022-09-09T15:06:14;1.97;;;1.13;;
11837;SDS011;5978;51.020;6.764;2022-09-09T15:08:41;3.27;;;1.10;;
11837;SDS011;5978;51.020;6.764;2022-09-09T15:11:09;1.90;;;0.90;;
11837;SDS011;5978;51.020;6.764;2022-09-09T15:13:35;1.83;;;1.10;;
11837;SDS011;5978;51.020;6.764;2022-09-09T15:16:12;1.60;;;0.90;;
11837;SDS011;5978;51.020;6.764;2022-09-09T15:18:39;2.53;;;1.10;;
11837;SDS011;5978;51.020;6.764;2022-09-09T15:21:17;2.60;;;1.30;;
11837;SDS011;5978;51.020;6.764;2022-09-09T15:23:44;1.87;;;1.30;;
11837;SDS011;5978;51.020;6.764;2022-09-09T15:26:10;1.47;;;1.37;;
11837;SDS011;5978;51.020;6.764;2022-09-09T15:28:37;1.30;;;0.83;;
11837;SDS011;5978;51.020;6.764;2022-09-09T15:31:07;1.80;;;1.20;;
11837;SDS011;5978;51.020;6.764;2022-09-09T15:33:35;3.20;;;1.30;;
11837;SDS011;5978;51.020;6.764;2022-09-09T15:38:43;3.23;;;1.70;;
11837;SDS011;5978;51.020;6.764;2022-09-09T15:41:10;1.67;;;1.13;;
11837;SDS011;5978;51.020;6.764;2022-09-09T15:43:37;3.50;;;0.93;;
11837;SDS011;5978;51.020;6.764;2022-09-09T15:46:20;1.93;;;1.10;;
11837;SDS011;5978;51.020;6.764;2022-09-09T15:48:49;1.23;;;0.90;;
11837;SDS011;5978;51.020;6.764;2022-09-09T15:51:15;1.57;;;1.30;;
11837;SDS011;5978;51.020;6.764;2022-09-09T15:53:42;3.20;;;1.07;;
11837;SDS011;5978;51.020;6.764;2022-09-09T15:56:08;2.63;;;1.27;;
11837;SDS011;5978;51.020;6.764;2022-09-09T15:58:34;1.20;;;1.10;;
11837;SDS011;5978;51.020;6.764;2022-09-09T16:01:07;1.50;;;0.90;;
11837;SDS011;5978;51.020;6.764;2022-09-09T16:03:34;2.53;;;1.10;;
11837;SDS011;5978;51.020;6.764;2022-09-09T16:06:01;1.30;;;0.93;;
11837;SDS011;5978;51.020;6.764;2022-09-09T16:08:33;1.00;;;0.90;;
11837;SDS011;5978;51.020;6.764;2022-09-09T16:11:06;1.77;;;1.10;;
11837;SDS011;5978;51.020;6.764;2022-09-09T16:13:37;2.83;;;0.97;;
11837;SDS011;5978;51.020;6.764;2022-09-09T16:16:04;2.30;;;1.60;;
11837;SDS011;5978;51.020;6.764;2022-09-09T16:18:34;3.67;;;1.30;;
11837;SDS011;5978;51.020;6.764;2022-09-09T16:21:00;4.30;;;0.80;;
11837;SDS011;5978;51.020;6.764;2022-09-09T16:23:26;1.67;;;0.90;;
11837;SDS011;5978;51.020;6.764;2022-09-09T16:25:55;1.50;;;1.00;;
11837;SDS011;5978;51.020;6.764;2022-09-09T16:28:21;1.40;;;1.10;;
11837;SDS011;5978;51.020;6.764;2022-09-09T16:30:47;2.83;;;1.33;;
11837;SDS011;5978;51.020;6.764;2022-09-09T16:33:13;1.30;;;1.00;;
11837;SDS011;5978;51.020;6.764;2022-09-09T16:35:42;4.40;;;1.23;;
11837;SDS011;5978;51.020;6.764;2022-09-09T16:38:08;2.23;;;1.10;;
11837;SDS011;5978;51.020;6.764;2022-09-09T16:40:34;1.70;;;1.30;;
11837;SDS011;5978;51.020;6.764;2022-09-09T16:43:00;3.77;;;1.30;;
11837;SDS011;5978;51.020;6.764;2022-09-09T16:45:26;1.87;;;1.30;;
11837;SDS011;5978;51.020;6.764;2022-09-09T16:47:52;5.30;;;1.20;;
11837;SDS011;5978;51.020;6.764;2022-09-09T16:50:18;1.63;;;1.10;;
11837;SDS011;5978;51.020;6.764;2022-09-09T16:52:44;2.50;;;1.10;;
11837;SDS011;5978;51.020;6.764;2022-09-09T16:55:10;2.20;;;1.80;;
11837;SDS011;5978;51.020;6.764;2022-09-09T16:57:35;2.80;;;1.23;;
11837;SDS011;5978;51.020;6.764;2022-09-09T17:00:01;1.70;;;1.10;;
11837;SDS011;5978;51.020;6.764;2022-09-09T17:02:29;2.20;;;1.23;;
11837;SDS011;5978;51.020;6.764;2022-09-09T17:04:55;2.70;;;1.20;;
11837;SDS011;5978;51.020;6.764;2022-09-09T17:07:21;1.30;;;1.10;;
11837;SDS011;5978;51.020;6.764;2022-09-09T17:09:47;1.43;;;1.20;;
11837;SDS011;5978;51.020;6.764;2022-09-09T17:12:13;1.50;;;0.97;;
11837;SDS011;5978;51.020;6.764;2022-09-09T17:14:39;3.17;;;1.40;;
11837;SDS011;5978;51.020;6.764;2022-09-09T17:17:05;1.77;;;0.90;;
11837;SDS011;5978;51.020;6.764;2022-09-09T17:19:30;4.33;;;1.13;;
11837;SDS011;5978;51.020;6.764;2022-09-09T17:21:56;3.17;;;1.40;;
11837;SDS011;5978;51.020;6.764;2022-09-09T17:24:23;3.13;;;1.20;;
11837;SDS011;5978;51.020;6.764;2022-09-09T17:26:51;3.73;;;1.57;;
11837;SDS011;5978;51.020;6.764;2022-09-09T17:29:17;1.50;;;1.23;;
11837;SDS011;5978;51.020;6.764;2022-09-09T17:31:43;1.80;;;1.43;;